Frydek, Czech Republic
Current Conditions -  °F | °C
As of 12:00 PM on Wednesday 26 Nov 2014 (Local Time) from LKMT Reporting Station
Haze Haze  
Wind Chill: 34°   Ceiling: 4500
Heat Index: 34°   Visibility: 2.1mi
Dew Point: 34°   Wind: 1mph
Humidity: 100%   Direction: NA
Pressure: 30.27"   Gusts: NA
Location:  49.68°N, 18.34°E
Report Text: LKMT 261000Z VRB01KT 3500 BR SCT004 OVC045 01/01 Q1025 NOSIG
Loading
Personal Weather Stations






























Interactive Weather Map New forecast layout! Learn more

10-Day Weather Forecast

Advertisements
Track Severe Weather on mobile